createdAt,value
2022-12-12T00:02:18.234Z,10.60
2022-12-12T00:04:46.288Z,9.70
2022-12-12T00:07:15.211Z,9.30
2022-12-12T00:09:45.188Z,11.00
2022-12-12T00:12:15.229Z,10.90
2022-12-12T00:14:43.283Z,12.30
2022-12-12T00:17:11.278Z,10.70
2022-12-12T00:19:43.066Z,12.60
2022-12-12T00:22:12.405Z,11.20
2022-12-12T00:24:41.225Z,11.30
2022-12-12T00:27:09.441Z,12.00
2022-12-12T00:29:39.637Z,11.90
2022-12-12T00:32:10.754Z,10.70
2022-12-12T00:34:40.864Z,11.50
2022-12-12T00:37:10.784Z,10.50
2022-12-12T00:39:41.213Z,11.10
2022-12-12T00:42:09.513Z,11.30
2022-12-12T00:44:37.592Z,10.40
2022-12-12T00:51:31.205Z,12.40
2022-12-12T00:54:01.309Z,10.90
2022-12-12T00:56:40.025Z,9.00
2022-12-12T00:59:09.812Z,9.90
2022-12-12T01:01:41.661Z,8.10
2022-12-12T01:04:14.845Z,10.80
2022-12-12T01:14:16.066Z,8.10
2022-12-12T01:16:47.469Z,8.40
2022-12-12T01:19:18.713Z,9.00
2022-12-12T01:21:49.619Z,9.60
2022-12-12T01:24:18.588Z,9.30
2022-12-12T01:26:47.878Z,8.70
2022-12-12T01:29:18.378Z,7.70
2022-12-12T01:31:46.501Z,7.30
2022-12-12T01:34:15.239Z,9.00
2022-12-12T01:36:44.692Z,7.80
2022-12-12T01:39:13.353Z,8.80
2022-12-12T01:41:42.951Z,7.10
2022-12-12T01:44:46.336Z,9.00
2022-12-12T01:47:17.016Z,9.50
2022-12-12T01:50:06.961Z,7.20
2022-12-12T01:52:43.707Z,7.90
2022-12-12T01:55:20.137Z,8.80
2022-12-12T01:57:55.186Z,7.20
2022-12-12T02:00:29.167Z,8.80
2022-12-12T02:03:23.369Z,8.10
2022-12-12T02:05:55.074Z,7.50
2022-12-12T02:08:24.464Z,7.00
2022-12-12T02:10:52.425Z,7.90
2022-12-12T02:13:26.218Z,8.00
2022-12-12T02:16:19.798Z,7.50
2022-12-12T02:18:50.062Z,8.60
2022-12-12T02:21:38.306Z,9.20
2022-12-12T02:24:19.368Z,7.70
2022-12-12T02:27:25.444Z,7.70
2022-12-12T02:30:07.060Z,7.10
2022-12-12T02:33:04.878Z,7.30
2022-12-12T02:35:59.175Z,7.50
2022-12-12T02:38:40.319Z,7.50
2022-12-12T02:41:14.286Z,4.80
2022-12-12T02:44:25.308Z,5.90
2022-12-12T02:51:30.603Z,6.40
2022-12-12T02:54:01.546Z,6.00
2022-12-12T02:56:47.014Z,6.30
2022-12-12T03:00:01.237Z,6.40
2022-12-12T03:02:32.480Z,6.60
2022-12-12T03:05:50.983Z,5.10
2022-12-12T03:08:35.662Z,6.20
2022-12-12T03:11:08.165Z,8.00
2022-12-12T03:13:51.411Z,7.10
2022-12-12T03:16:25.843Z,5.40
2022-12-12T03:19:26.625Z,5.30
2022-12-12T03:22:11.513Z,5.50
2022-12-12T03:25:02.412Z,5.10
2022-12-12T03:27:48.725Z,7.00
2022-12-12T03:30:47.291Z,3.70
2022-12-12T03:33:19.463Z,6.20
2022-12-12T03:36:20.853Z,7.30
2022-12-12T03:39:34.949Z,6.30
2022-12-12T03:42:12.857Z,6.10
2022-12-12T03:44:49.429Z,5.20
2022-12-12T03:51:27.970Z,4.50
2022-12-12T03:53:58.593Z,3.80
2022-12-12T03:56:31.577Z,5.30
2022-12-12T03:59:09.329Z,5.60
2022-12-12T04:01:46.341Z,5.60
2022-12-12T04:04:37.263Z,5.80
2022-12-12T04:07:21.951Z,4.90
2022-12-12T04:10:14.777Z,4.20
2022-12-12T04:13:08.808Z,4.80
2022-12-12T04:15:52.076Z,5.40
2022-12-12T04:18:35.095Z,7.10
2022-12-12T04:22:06.419Z,6.40
2022-12-12T04:24:43.946Z,5.70
2022-12-12T04:27:34.695Z,5.00
2022-12-12T04:30:09.363Z,4.30
2022-12-12T04:32:56.294Z,5.00
2022-12-12T04:35:32.193Z,5.20
2022-12-12T04:38:07.808Z,4.10
2022-12-12T04:40:44.811Z,3.50
2022-12-12T04:43:40.402Z,3.70
2022-12-12T04:47:03.683Z,5.60
2022-12-12T04:49:35.689Z,3.70
2022-12-12T04:52:09.998Z,4.90
2022-12-12T04:54:58.895Z,7.80
2022-12-12T04:57:36.096Z,7.00
2022-12-12T05:00:10.931Z,6.90
2022-12-12T05:03:08.295Z,7.30
2022-12-12T05:06:03.484Z,5.10
2022-12-12T05:08:48.419Z,6.40
2022-12-12T05:11:21.851Z,5.10
2022-12-12T05:13:53.978Z,18.00
2022-12-12T05:16:30.186Z,26.90
2022-12-12T05:19:00.632Z,12.80
2022-12-12T05:21:28.727Z,21.90
2022-12-12T05:23:59.768Z,8.70
2022-12-12T05:26:31.027Z,5.50
2022-12-12T05:29:06.879Z,9.50
2022-12-12T05:31:37.816Z,6.90
2022-12-12T05:34:09.966Z,10.60
2022-12-12T05:36:55.213Z,9.20
2022-12-12T05:39:26.079Z,19.60
2022-12-12T05:41:57.893Z,40.60
2022-12-12T05:44:30.520Z,39.40
2022-12-12T05:46:59.793Z,49.10
2022-12-12T05:49:30.117Z,25.60
2022-12-12T05:51:59.406Z,5.10
2022-12-12T05:54:33.253Z,4.80
2022-12-12T05:57:02.065Z,5.70
2022-12-12T05:59:30.802Z,3.70
2022-12-12T06:01:59.677Z,5.60
2022-12-12T06:04:28.058Z,3.50
2022-12-12T06:06:56.141Z,7.10
2022-12-12T06:09:26.720Z,3.20
2022-12-12T06:11:54.862Z,4.30
2022-12-12T06:14:27.023Z,3.40
2022-12-12T06:17:00.422Z,3.70
2022-12-12T06:19:31.220Z,3.50
2022-12-12T06:21:59.257Z,4.80
2022-12-12T06:24:29.154Z,3.00
2022-12-12T06:26:57.614Z,4.50
2022-12-12T06:29:26.782Z,3.30
2022-12-12T06:31:57.556Z,5.20
2022-12-12T06:34:28.207Z,8.10
2022-12-12T06:36:57.133Z,5.00
2022-12-12T06:39:26.372Z,5.20
2022-12-12T06:41:54.300Z,8.30
2022-12-12T06:44:25.771Z,3.70
2022-12-12T06:48:14.864Z,4.30
2022-12-12T06:50:46.376Z,4.90
2022-12-12T06:53:15.870Z,4.50
2022-12-12T06:55:46.119Z,6.40
2022-12-12T06:58:21.602Z,11.00
2022-12-12T07:00:54.682Z,4.40
2022-12-12T07:03:24.692Z,8.50
2022-12-12T07:05:54.323Z,12.10
2022-12-12T07:08:23.207Z,31.00
2022-12-12T07:10:51.493Z,4.60
2022-12-12T07:13:19.520Z,6.30
2022-12-12T07:15:50.747Z,5.20
2022-12-12T07:18:18.984Z,4.10
2022-12-12T07:20:47.039Z,4.50
2022-12-12T07:23:17.076Z,3.30
2022-12-12T07:25:46.729Z,3.30
2022-12-12T07:28:15.834Z,4.80
2022-12-12T07:30:48.553Z,4.20
2022-12-12T07:33:23.333Z,7.30
2022-12-12T07:36:00.824Z,5.40
2022-12-12T07:38:29.324Z,6.20
2022-12-12T07:41:06.373Z,7.80
2022-12-12T07:43:44.226Z,5.50
2022-12-12T07:46:27.465Z,4.80
2022-12-12T07:48:58.974Z,5.00
2022-12-12T07:51:49.431Z,4.60
2022-12-12T07:54:39.142Z,5.90
2022-12-12T07:57:08.503Z,6.40
2022-12-12T08:05:43.950Z,8.70
2022-12-12T08:08:13.695Z,6.70
2022-12-12T08:10:43.266Z,5.50
2022-12-12T08:13:14.492Z,4.20
2022-12-12T08:15:44.415Z,7.00
2022-12-12T08:18:22.179Z,7.30
2022-12-12T08:20:57.368Z,7.80
2022-12-12T08:23:28.009Z,7.10
2022-12-12T08:26:05.906Z,5.50
2022-12-12T08:28:33.819Z,6.50
2022-12-12T08:37:36.100Z,5.80
2022-12-12T08:40:15.289Z,5.60
2022-12-12T08:42:51.992Z,9.10
2022-12-12T08:45:33.602Z,9.10
2022-12-12T08:48:07.120Z,10.70
2022-12-12T08:50:36.059Z,7.10
2022-12-12T08:53:11.225Z,6.10
2022-12-12T08:55:50.517Z,6.90
2022-12-12T08:58:22.456Z,6.40
2022-12-12T09:00:52.903Z,5.90
2022-12-12T09:03:29.383Z,6.60
2022-12-12T09:05:58.807Z,7.80
2022-12-12T09:08:44.421Z,6.40
2022-12-12T09:12:25.809Z,5.40
2022-12-12T09:25:42.912Z,8.70
2022-12-12T09:28:15.370Z,7.00
2022-12-12T09:30:45.490Z,8.40
2022-12-12T09:33:20.317Z,6.00
2022-12-12T09:36:51.908Z,7.20
2022-12-12T09:39:40.873Z,6.60
2022-12-12T09:42:55.225Z,6.40
2022-12-12T10:03:34.544Z,6.90
2022-12-12T10:06:37.195Z,7.10
2022-12-12T10:18:48.938Z,9.30
2022-12-12T10:23:34.968Z,4.80
2022-12-12T10:27:14.179Z,5.30
2022-12-12T10:34:56.369Z,7.80
2022-12-12T10:38:39.887Z,5.20
2022-12-12T10:41:44.454Z,6.30
2022-12-12T10:50:55.294Z,5.90
2022-12-12T10:54:20.126Z,5.10
2022-12-12T11:02:32.060Z,5.50
2022-12-12T11:05:16.435Z,6.20
2022-12-12T11:08:47.329Z,6.20
2022-12-12T11:16:39.662Z,8.30
2022-12-12T11:24:04.434Z,7.90
2022-12-12T11:26:53.054Z,4.90
2022-12-12T11:30:02.934Z,5.70
2022-12-12T11:32:44.404Z,6.60
2022-12-12T11:35:36.135Z,6.00
2022-12-12T11:38:17.126Z,7.80
2022-12-12T11:41:09.329Z,5.30
2022-12-12T11:44:02.166Z,5.90
2022-12-12T11:51:45.596Z,5.90
2022-12-12T11:54:18.696Z,9.90
2022-12-12T11:56:59.477Z,5.50
2022-12-12T11:59:55.814Z,7.30
2022-12-12T12:02:32.936Z,9.20
2022-12-12T12:05:40.036Z,6.20
2022-12-12T12:08:29.108Z,7.50
2022-12-12T12:11:33.743Z,7.20
2022-12-12T12:14:28.211Z,8.30
2022-12-12T12:17:04.602Z,6.80
2022-12-12T12:20:12.855Z,8.30
2022-12-12T12:23:18.601Z,8.20
2022-12-12T12:26:05.115Z,6.60
2022-12-12T12:28:38.973Z,5.00
2022-12-12T12:31:24.996Z,6.30
2022-12-12T12:33:59.218Z,6.30
2022-12-12T12:37:11.544Z,8.00
2022-12-12T12:40:12.247Z,8.20
2022-12-12T12:42:55.836Z,5.00
2022-12-12T12:49:46.274Z,5.70
2022-12-12T12:52:20.553Z,9.70
2022-12-12T12:54:50.294Z,9.40
2022-12-12T12:57:26.107Z,8.50
2022-12-12T12:59:59.862Z,10.00
2022-12-12T13:02:42.607Z,13.40
2022-12-12T13:05:27.173Z,145.10
2022-12-12T13:08:16.328Z,30.80
2022-12-12T13:11:03.619Z,64.80
2022-12-12T13:13:41.546Z,14.00
2022-12-12T13:16:15.880Z,11.40
2022-12-12T13:18:49.219Z,14.60
2022-12-12T13:21:35.474Z,9.90
2022-12-12T13:24:23.629Z,7.90
2022-12-12T13:27:13.602Z,8.20
2022-12-12T13:30:12.788Z,10.60
2022-12-12T13:33:02.512Z,9.70
2022-12-12T13:35:51.477Z,9.90
2022-12-12T13:38:29.036Z,10.90
2022-12-12T13:41:07.270Z,8.40
2022-12-12T13:43:41.331Z,13.80
2022-12-12T13:57:22.801Z,46.30
2022-12-12T13:59:58.805Z,43.60
2022-12-12T14:02:40.564Z,104.00
2022-12-12T14:05:17.261Z,40.50
2022-12-12T14:08:18.917Z,64.70
2022-12-12T14:11:01.579Z,101.60
2022-12-12T14:24:18.130Z,224.20
2022-12-12T14:26:49.291Z,122.00
2022-12-12T14:29:18.870Z,51.20
2022-12-12T14:32:14.680Z,28.20
2022-12-12T14:35:17.869Z,37.40
2022-12-12T14:38:05.558Z,30.40
2022-12-12T14:40:42.608Z,10.80
2022-12-12T14:43:23.282Z,13.60
2022-12-12T14:45:59.476Z,10.30
2022-12-12T14:48:31.614Z,15.40
2022-12-12T14:51:27.549Z,9.90
2022-12-12T14:54:02.145Z,18.20
2022-12-12T14:56:39.161Z,12.60
2022-12-12T14:59:23.404Z,12.60
2022-12-12T15:02:30.147Z,13.80
2022-12-12T15:05:05.509Z,12.20
2022-12-12T15:07:39.137Z,12.00
2022-12-12T15:10:31.295Z,9.60
2022-12-12T15:13:03.109Z,10.10
2022-12-12T15:15:35.509Z,11.40
2022-12-12T15:18:06.642Z,9.40
2022-12-12T15:20:38.912Z,9.40
2022-12-12T15:23:09.130Z,8.90
2022-12-12T15:25:47.339Z,9.50
2022-12-12T15:28:20.019Z,8.20
2022-12-12T15:30:54.067Z,8.60
2022-12-12T15:33:26.562Z,14.90
2022-12-12T15:36:02.579Z,14.70
2022-12-12T15:38:35.264Z,11.40
2022-12-12T15:41:13.000Z,6.10
2022-12-12T15:43:44.930Z,9.40
2022-12-12T15:46:16.466Z,8.60
2022-12-12T15:48:49.518Z,5.20
2022-12-12T15:51:24.989Z,7.90
2022-12-12T15:57:16.750Z,15.30
2022-12-12T15:59:58.590Z,8.10
2022-12-12T16:02:33.090Z,10.10
2022-12-12T16:11:27.698Z,8.90
2022-12-12T16:13:59.416Z,7.90
2022-12-12T16:16:50.092Z,4.60
2022-12-12T16:19:29.862Z,9.00
2022-12-12T16:22:07.431Z,7.40
2022-12-12T16:24:53.063Z,9.60
2022-12-12T16:27:22.600Z,11.20
2022-12-12T16:29:55.775Z,11.30
2022-12-12T16:32:25.646Z,9.00
2022-12-12T16:34:56.443Z,13.10
2022-12-12T16:37:26.463Z,14.00
2022-12-12T16:39:55.822Z,13.00
2022-12-12T16:42:31.675Z,8.20
2022-12-12T16:45:01.396Z,8.80
2022-12-12T16:47:32.664Z,12.60
2022-12-12T16:50:07.812Z,9.90
2022-12-12T16:52:40.093Z,11.10
2022-12-12T16:55:21.180Z,10.20
2022-12-12T16:57:52.717Z,6.10
2022-12-12T17:00:23.014Z,9.30
2022-12-12T17:02:57.781Z,7.20
2022-12-12T17:05:30.151Z,13.00
2022-12-12T17:07:59.916Z,12.60
2022-12-12T17:10:36.816Z,13.10
2022-12-12T17:13:08.482Z,10.80
2022-12-12T17:15:38.980Z,9.50
2022-12-12T17:18:08.527Z,12.90
2022-12-12T17:20:38.948Z,11.20
2022-12-12T17:23:27.944Z,9.20
2022-12-12T17:26:03.560Z,15.70
2022-12-12T17:28:36.444Z,8.30
2022-12-12T17:31:10.585Z,12.00
2022-12-12T17:34:07.298Z,11.30
2022-12-12T17:36:38.664Z,9.60
2022-12-12T17:39:08.546Z,13.20
2022-12-12T17:41:38.049Z,11.50
2022-12-12T17:44:14.644Z,10.10
2022-12-12T17:46:44.190Z,8.60
2022-12-12T17:49:14.834Z,10.00
2022-12-12T17:51:44.987Z,9.20
2022-12-12T17:54:17.329Z,10.10
2022-12-12T17:56:56.301Z,9.10
2022-12-12T17:59:29.745Z,9.40
2022-12-12T18:02:02.178Z,12.70
2022-12-12T18:04:38.942Z,8.80
2022-12-12T18:07:10.447Z,11.70
2022-12-12T18:09:41.482Z,11.00
2022-12-12T18:12:16.134Z,12.20
2022-12-12T18:14:47.050Z,8.60
2022-12-12T18:17:21.340Z,9.30
2022-12-12T18:19:53.280Z,11.00
2022-12-12T18:22:24.480Z,16.20
2022-12-12T18:24:57.156Z,10.00
2022-12-12T18:27:27.982Z,10.30
2022-12-12T18:30:01.085Z,6.30
2022-12-12T18:32:31.179Z,15.70
2022-12-12T18:35:02.496Z,10.10
2022-12-12T18:37:32.764Z,12.00
2022-12-12T18:40:02.651Z,13.50
2022-12-12T18:42:34.971Z,10.40
2022-12-12T18:45:12.689Z,11.40
2022-12-12T18:47:47.935Z,10.30
2022-12-12T18:50:20.067Z,10.00
2022-12-12T18:52:51.297Z,7.90
2022-12-12T18:55:28.567Z,6.90
2022-12-12T18:58:05.049Z,8.30
2022-12-12T19:00:41.159Z,10.00
2022-12-12T19:03:13.197Z,9.50
2022-12-12T19:05:57.342Z,8.80
2022-12-12T19:08:28.460Z,14.20
2022-12-12T19:11:04.561Z,10.40
2022-12-12T19:13:44.157Z,9.00
2022-12-12T19:16:18.475Z,14.20
2022-12-12T19:18:50.144Z,10.20
2022-12-12T19:21:32.499Z,13.10
2022-12-12T19:24:07.992Z,9.30
2022-12-12T19:26:41.814Z,9.10
2022-12-12T19:29:18.945Z,12.50
2022-12-12T19:31:53.906Z,13.30
2022-12-12T19:34:32.634Z,9.10
2022-12-12T19:37:03.695Z,10.10
2022-12-12T19:39:35.646Z,6.80
2022-12-12T19:42:08.835Z,9.10
2022-12-12T19:44:45.701Z,8.20
2022-12-12T19:51:36.538Z,7.30
2022-12-12T19:54:26.251Z,8.70
2022-12-12T19:57:04.276Z,7.70
2022-12-12T19:59:39.801Z,8.80
2022-12-12T20:02:14.341Z,9.60
2022-12-12T20:04:48.310Z,6.00
2022-12-12T20:07:20.104Z,6.20
2022-12-12T20:09:52.578Z,6.90
2022-12-12T20:12:22.849Z,9.10
2022-12-12T20:14:54.597Z,10.00
2022-12-12T20:17:28.772Z,6.40
2022-12-12T20:20:00.018Z,6.30
2022-12-12T20:22:30.200Z,8.20
2022-12-12T20:25:04.001Z,5.90
2022-12-12T20:27:36.122Z,6.60
2022-12-12T20:30:08.575Z,13.20
2022-12-12T20:32:40.192Z,8.50
2022-12-12T20:35:12.452Z,8.10
2022-12-12T20:37:43.240Z,7.70
2022-12-12T20:40:16.138Z,8.10
2022-12-12T20:42:57.129Z,8.50
2022-12-12T20:45:32.408Z,7.40
2022-12-12T20:48:32.118Z,7.10
2022-12-12T20:51:02.531Z,5.70
2022-12-12T20:53:36.668Z,5.10
2022-12-12T20:56:12.282Z,5.10
2022-12-12T20:58:43.035Z,5.10
2022-12-12T21:01:19.791Z,5.60
2022-12-12T21:03:51.869Z,5.50
2022-12-12T21:06:27.062Z,6.30
2022-12-12T21:09:00.490Z,5.40
2022-12-12T21:11:33.086Z,5.70
2022-12-12T21:14:07.702Z,7.30
2022-12-12T21:16:40.170Z,6.70
2022-12-12T21:19:13.872Z,7.00
2022-12-12T21:21:45.646Z,6.80
2022-12-12T21:24:17.624Z,5.40
2022-12-12T21:26:48.433Z,7.70
2022-12-12T21:29:19.462Z,6.60
2022-12-12T21:31:51.871Z,10.40
2022-12-12T21:34:23.240Z,6.70
2022-12-12T21:36:56.048Z,7.90
2022-12-12T21:39:30.006Z,6.10
2022-12-12T21:42:00.248Z,6.20
2022-12-12T21:44:29.655Z,7.00
2022-12-12T21:51:13.502Z,6.20
2022-12-12T21:53:43.752Z,8.50
2022-12-12T21:56:17.946Z,8.20
2022-12-12T21:58:48.191Z,8.90
2022-12-12T22:01:21.683Z,5.60
2022-12-12T22:03:50.893Z,7.00
2022-12-12T22:06:22.832Z,9.30
2022-12-12T22:08:52.270Z,8.30
2022-12-12T22:11:40.562Z,7.70
2022-12-12T22:14:12.404Z,6.60
2022-12-12T22:16:41.778Z,5.30
2022-12-12T22:19:13.418Z,5.70
2022-12-12T22:21:46.703Z,6.10
2022-12-12T22:24:17.559Z,4.90
2022-12-12T22:26:49.394Z,5.60
2022-12-12T22:29:20.484Z,5.50
2022-12-12T22:31:52.674Z,6.00
2022-12-12T22:34:26.593Z,6.60
2022-12-12T22:36:57.738Z,6.80
2022-12-12T22:39:28.611Z,5.70
2022-12-12T22:41:58.392Z,6.50
2022-12-12T22:44:27.661Z,5.60
2022-12-12T22:47:25.353Z,6.00
2022-12-12T22:49:54.367Z,7.40
2022-12-12T22:52:26.512Z,7.00
2022-12-12T22:54:55.887Z,6.20
2022-12-12T22:57:25.991Z,8.90
2022-12-12T22:59:55.117Z,5.90
2022-12-12T23:02:25.258Z,7.90
2022-12-12T23:04:55.116Z,13.20
2022-12-12T23:07:24.378Z,5.70
2022-12-12T23:09:53.563Z,7.00
2022-12-12T23:12:24.346Z,5.10
2022-12-12T23:14:53.390Z,11.40
2022-12-12T23:17:25.633Z,6.90
2022-12-12T23:19:54.632Z,6.80
2022-12-12T23:22:24.938Z,6.90
2022-12-12T23:24:53.868Z,8.70
2022-12-12T23:27:23.086Z,8.50
2022-12-12T23:29:53.743Z,8.10
2022-12-12T23:32:24.693Z,10.80
2022-12-12T23:34:55.228Z,13.30
2022-12-12T23:37:24.399Z,8.00
2022-12-12T23:39:53.665Z,8.20
2022-12-12T23:42:22.618Z,8.30
2022-12-12T23:44:51.622Z,13.40
2022-12-12T23:47:49.143Z,8.80
2022-12-12T23:50:18.725Z,10.20
2022-12-12T23:52:47.730Z,9.50
2022-12-12T23:55:18.175Z,9.40
2022-12-12T23:57:48.253Z,9.10
